< < Back
Terminal Aerodrome Forecast


Current Version              Previous Versions:   1  2  3  4  5  6  7  8  9  

Terminal Aerodrome Forecast

712
FTUS44 KOHX 271700
TAFCSV
TAF
KCSV 271720Z 2718/2818 02011KT P6SM FEW050 BKN250
     FM280100 03004KT P6SM SKC
     FM281500 06008KT P6SM BKN250=

Latest METAR

873
SAUS70 KWBC 272000 RRB
MTRCSV
METAR KCSV 271953Z AUTO 29005KT 10SM CLR 17/00 A2995 RMK AO2 SLP134
T01670000


USA.gov is the U.S. government's official web portal to all federal, state and local government web resources and services.